createdAt,value
2018-02-24T00:00:42.125Z,49.70
2018-02-24T00:03:09.636Z,50.00
2018-02-24T00:05:37.154Z,49.90
2018-02-24T00:08:04.697Z,49.80
2018-02-24T00:10:32.245Z,49.80
2018-02-24T00:13:00.511Z,49.90
2018-02-24T00:15:28.809Z,50.10
2018-02-24T00:17:56.321Z,50.00
2018-02-24T00:20:24.616Z,50.00
2018-02-24T00:22:52.896Z,50.10
2018-02-24T00:25:21.209Z,50.20
2018-02-24T00:27:48.710Z,50.10
2018-02-24T00:30:16.207Z,50.00
2018-02-24T00:32:43.719Z,49.90
2018-02-24T00:35:11.232Z,50.00
2018-02-24T00:37:38.757Z,50.10
2018-02-24T00:40:07.049Z,50.10
2018-02-24T00:42:34.578Z,50.10
2018-02-24T00:45:02.084Z,50.10
2018-02-24T00:47:29.612Z,50.40
2018-02-24T00:49:57.925Z,50.60
2018-02-24T00:52:25.425Z,50.60
2018-02-24T00:54:53.743Z,50.20
2018-02-24T00:57:21.296Z,50.20
2018-02-24T00:59:48.833Z,50.10
2018-02-24T01:02:17.106Z,50.80
2018-02-24T01:04:45.427Z,50.70
2018-02-24T01:07:12.927Z,50.60
2018-02-24T01:09:40.465Z,50.60
2018-02-24T01:12:07.976Z,50.60
2018-02-24T01:14:35.492Z,50.40
2018-02-24T01:17:04.607Z,50.90
2018-02-24T01:19:32.922Z,50.10
2018-02-24T01:22:00.459Z,50.10
2018-02-24T01:24:27.958Z,50.50
2018-02-24T01:26:55.455Z,50.70
2018-02-24T01:29:23.769Z,50.50
2018-02-24T01:31:51.272Z,50.50
2018-02-24T01:34:18.824Z,50.80
2018-02-24T01:36:46.323Z,50.70
2018-02-24T01:39:13.865Z,50.60
2018-02-24T01:41:42.137Z,50.50
2018-02-24T01:44:10.448Z,50.40
2018-02-24T01:46:37.944Z,50.40
2018-02-24T01:49:05.439Z,50.40
2018-02-24T01:51:33.738Z,50.50
2018-02-24T01:54:01.237Z,50.40
2018-02-24T01:56:28.748Z,50.50
2018-02-24T01:58:56.252Z,50.50
2018-02-24T02:01:23.792Z,50.80
2018-02-24T02:03:51.292Z,50.80
2018-02-24T02:06:19.596Z,51.00
2018-02-24T02:08:47.091Z,50.90
2018-02-24T02:11:14.595Z,50.50
2018-02-24T02:13:42.887Z,50.70
2018-02-24T02:16:10.409Z,50.70
2018-02-24T02:18:37.945Z,50.50
2018-02-24T02:21:05.442Z,50.70
2018-02-24T02:23:33.771Z,50.40
2018-02-24T02:26:01.282Z,50.20
2018-02-24T02:28:28.828Z,50.20
2018-02-24T02:30:57.115Z,50.10
2018-02-24T02:33:24.619Z,50.00
2018-02-24T02:35:52.169Z,50.10
2018-02-24T02:38:19.665Z,50.20
2018-02-24T02:40:47.188Z,50.30
2018-02-24T02:43:14.688Z,49.80
2018-02-24T02:45:43.301Z,50.00
2018-02-24T02:48:10.787Z,50.00
2018-02-24T02:50:38.287Z,50.10
2018-02-24T02:53:06.600Z,50.20
2018-02-24T02:55:34.107Z,50.10
2018-02-24T02:58:01.650Z,50.30
2018-02-24T03:00:30.676Z,50.20
2018-02-24T03:02:58.933Z,50.00
2018-02-24T03:05:26.447Z,50.00
2018-02-24T03:07:53.950Z,49.80
2018-02-24T03:10:22.240Z,49.50
2018-02-24T03:12:50.501Z,50.00
2018-02-24T03:15:18.033Z,50.00
2018-02-24T03:17:45.533Z,49.90
2018-02-24T03:20:13.825Z,49.40
2018-02-24T03:22:41.321Z,49.40
2018-02-24T03:25:08.841Z,49.80
2018-02-24T03:27:36.336Z,49.60
2018-02-24T03:30:03.856Z,49.90
2018-02-24T03:32:31.379Z,50.00
2018-02-24T03:34:59.692Z,49.60
2018-02-24T03:37:27.187Z,50.10
2018-02-24T03:39:54.713Z,50.10
2018-02-24T03:42:22.280Z,49.90
2018-02-24T03:44:49.788Z,49.60
2018-02-24T03:47:18.052Z,49.70
2018-02-24T03:49:45.588Z,49.60
2018-02-24T03:52:13.088Z,49.60
2018-02-24T03:54:41.395Z,49.90
2018-02-24T03:57:08.884Z,49.80
2018-02-24T03:59:36.426Z,49.90
2018-02-24T04:02:03.935Z,49.60
2018-02-24T04:04:31.474Z,49.70
2018-02-24T04:06:58.991Z,50.00
2018-02-24T04:09:26.491Z,49.70
2018-02-24T04:11:54.006Z,49.80
2018-02-24T04:14:21.500Z,50.60
2018-02-24T04:16:49.024Z,50.00
2018-02-24T04:19:16.524Z,50.50
2018-02-24T04:21:44.039Z,50.80
2018-02-24T04:24:11.537Z,51.10
2018-02-24T04:26:39.823Z,51.10
2018-02-24T04:29:08.093Z,50.90
2018-02-24T04:31:36.399Z,50.60
2018-02-24T04:34:03.912Z,50.60
2018-02-24T04:36:31.412Z,50.70
2018-02-24T04:38:58.940Z,51.00
2018-02-24T04:41:27.233Z,51.40
2018-02-24T04:43:54.771Z,51.30
2018-02-24T04:46:23.044Z,51.00
2018-02-24T04:48:52.086Z,51.20
2018-02-24T04:51:19.616Z,51.20
2018-02-24T04:53:47.157Z,51.10
2018-02-24T04:56:15.416Z,51.10
2018-02-24T04:58:42.932Z,51.00
2018-02-24T05:01:10.455Z,51.00
2018-02-24T05:03:38.724Z,51.50
2018-02-24T05:06:07.018Z,51.30
2018-02-24T05:08:34.572Z,51.30
2018-02-24T05:11:02.109Z,51.50
2018-02-24T05:13:30.385Z,52.30
2018-02-24T05:15:57.879Z,51.60
2018-02-24T05:18:25.410Z,51.80
2018-02-24T05:20:53.709Z,51.60
2018-02-24T05:23:21.216Z,51.60
2018-02-24T05:25:48.834Z,51.70
2018-02-24T05:28:16.339Z,51.50
2018-02-24T05:30:43.847Z,51.20
2018-02-24T05:33:11.368Z,51.50
2018-02-24T05:35:39.650Z,51.80
2018-02-24T05:38:07.964Z,51.70
2018-02-24T05:40:35.474Z,51.70
2018-02-24T05:43:03.735Z,51.60
2018-02-24T05:45:31.265Z,51.50
2018-02-24T05:47:58.761Z,51.50
2018-02-24T05:50:27.051Z,52.30
2018-02-24T05:52:55.327Z,51.70
2018-02-24T05:55:23.640Z,52.10
2018-02-24T05:57:51.135Z,52.10
2018-02-24T06:00:20.196Z,52.10
2018-02-24T06:02:47.716Z,52.60
2018-02-24T06:05:15.984Z,52.30
2018-02-24T06:07:44.280Z,52.30
2018-02-24T06:10:11.783Z,52.20
2018-02-24T06:12:39.316Z,52.60
2018-02-24T06:15:06.825Z,52.80
2018-02-24T06:17:35.121Z,52.90
2018-02-24T06:20:02.636Z,52.90
2018-02-24T06:22:30.167Z,52.70
2018-02-24T06:24:57.696Z,52.70
2018-02-24T06:27:25.220Z,52.70
2018-02-24T06:29:52.775Z,52.70
2018-02-24T06:32:20.294Z,52.50
2018-02-24T06:34:47.824Z,52.60
2018-02-24T06:37:15.344Z,52.70
2018-02-24T06:39:42.869Z,52.70
2018-02-24T06:42:10.393Z,52.60
2018-02-24T06:44:37.924Z,52.60
2018-02-24T06:47:05.459Z,52.80
2018-02-24T06:49:32.979Z,52.80
2018-02-24T06:52:00.500Z,52.70
2018-02-24T06:54:28.013Z,52.70
2018-02-24T06:56:55.651Z,53.00
2018-02-24T06:59:23.191Z,52.80
2018-02-24T07:01:51.488Z,52.80
2018-02-24T07:04:19.016Z,52.80
2018-02-24T07:06:47.296Z,52.60
2018-02-24T07:09:15.606Z,52.80
2018-02-24T07:11:43.125Z,52.80
2018-02-24T07:14:11.420Z,53.10
2018-02-24T07:16:38.952Z,53.10
2018-02-24T07:19:06.461Z,53.20
2018-02-24T07:21:34.010Z,53.50
2018-02-24T07:24:01.525Z,52.70
2018-02-24T07:26:29.829Z,53.40
2018-02-24T07:28:57.332Z,52.80
2018-02-24T07:31:24.848Z,52.70
2018-02-24T07:33:52.391Z,52.90
2018-02-24T07:36:20.669Z,52.60
2018-02-24T07:38:48.976Z,52.20
2018-02-24T07:41:16.476Z,52.20
2018-02-24T07:43:45.492Z,52.30
2018-02-24T07:46:13.820Z,52.20
2018-02-24T07:48:41.325Z,52.20
2018-02-24T07:51:09.672Z,51.90
2018-02-24T07:53:37.173Z,51.90
2018-02-24T07:56:04.699Z,51.50
2018-02-24T07:58:32.210Z,51.50
2018-02-24T08:00:59.732Z,51.00
2018-02-24T08:03:28.023Z,50.90
2018-02-24T08:05:55.552Z,50.80
2018-02-24T08:08:23.856Z,50.70
2018-02-24T08:10:52.136Z,50.20
2018-02-24T08:13:19.672Z,50.20
2018-02-24T08:15:47.955Z,49.70
2018-02-24T08:18:16.257Z,49.70
2018-02-24T08:20:43.772Z,49.70
2018-02-24T08:23:11.315Z,49.30
2018-02-24T08:25:38.826Z,48.40
2018-02-24T08:28:06.367Z,48.60
2018-02-24T08:30:33.931Z,48.80
2018-02-24T08:33:01.436Z,48.50
2018-02-24T08:35:28.971Z,48.90
2018-02-24T08:37:56.477Z,48.00
2018-02-24T08:40:24.784Z,47.30
2018-02-24T08:42:52.300Z,47.30
2018-02-24T08:45:19.889Z,47.30
2018-02-24T08:47:48.203Z,46.00
2018-02-24T08:50:15.700Z,46.00
2018-02-24T08:52:43.228Z,46.20
2018-02-24T08:55:10.754Z,45.20
2018-02-24T08:57:38.299Z,45.20
2018-02-24T09:00:05.806Z,45.00
2018-02-24T09:02:33.315Z,44.50
2018-02-24T09:05:00.872Z,44.10
2018-02-24T09:07:29.139Z,44.30
2018-02-24T09:09:56.701Z,43.70
2018-02-24T09:12:24.988Z,42.50
2018-02-24T09:14:52.536Z,42.40
2018-02-24T09:17:20.838Z,41.70
2018-02-24T09:19:48.388Z,41.50
2018-02-24T09:22:15.956Z,41.30
2018-02-24T09:24:43.460Z,42.10
2018-02-24T09:27:10.987Z,41.30
2018-02-24T09:29:38.507Z,41.20
2018-02-24T09:32:06.048Z,40.50
2018-02-24T09:34:34.896Z,40.80
2018-02-24T09:37:02.414Z,40.80
2018-02-24T09:39:29.977Z,39.20
2018-02-24T09:41:57.517Z,37.40
2018-02-24T09:44:25.785Z,37.20
2018-02-24T09:46:54.136Z,37.40
2018-02-24T09:49:21.637Z,37.40
2018-02-24T09:51:49.196Z,36.80
2018-02-24T09:54:16.698Z,36.30
2018-02-24T09:56:44.200Z,35.70
2018-02-24T09:59:12.516Z,35.70
2018-02-24T10:01:40.039Z,35.70
2018-02-24T10:04:08.334Z,35.10
2018-02-24T10:06:35.856Z,35.00
2018-02-24T10:09:04.129Z,35.00
2018-02-24T10:11:31.681Z,34.20
2018-02-24T10:13:59.944Z,32.50
2018-02-24T10:16:27.472Z,32.40
2018-02-24T10:18:55.078Z,32.40
2018-02-24T10:21:22.557Z,31.20
2018-02-24T10:23:50.824Z,31.30
2018-02-24T10:26:19.168Z,30.20
2018-02-24T10:28:46.656Z,30.20
2018-02-24T10:31:14.961Z,30.30
2018-02-24T10:33:42.474Z,30.30
2018-02-24T10:36:10.007Z,30.10
2018-02-24T10:38:37.511Z,29.90
2018-02-24T10:41:05.823Z,30.00
2018-02-24T10:43:33.352Z,30.00
2018-02-24T10:46:01.643Z,28.90
2018-02-24T10:48:29.223Z,28.90
2018-02-24T10:50:56.704Z,28.80
2018-02-24T10:53:24.254Z,27.40
2018-02-24T10:55:51.758Z,27.40
2018-02-24T10:58:19.572Z,27.30
2018-02-24T11:00:47.097Z,27.60
2018-02-24T11:03:14.607Z,28.00
2018-02-24T11:05:42.125Z,27.40
2018-02-24T11:08:09.684Z,27.60
2018-02-24T11:10:37.444Z,27.90
2018-02-24T11:13:04.956Z,27.90
2018-02-24T11:15:33.237Z,27.50
2018-02-24T11:18:01.533Z,26.60
2018-02-24T11:20:29.050Z,26.60
2018-02-24T11:22:56.584Z,26.40
2018-02-24T11:25:24.102Z,27.10
2018-02-24T11:27:51.661Z,27.70
2018-02-24T11:30:19.177Z,27.50
2018-02-24T11:32:46.719Z,27.80
2018-02-24T11:35:14.297Z,27.90
2018-02-24T11:37:41.793Z,26.70
2018-02-24T11:40:09.309Z,27.10
2018-02-24T11:42:36.846Z,26.30
2018-02-24T11:45:04.381Z,26.90
2018-02-24T11:47:31.904Z,26.10
2018-02-24T11:50:00.196Z,25.50
2018-02-24T11:52:27.707Z,25.50
2018-02-24T11:54:55.249Z,25.70
2018-02-24T11:57:22.772Z,25.60
2018-02-24T11:59:50.337Z,26.20
2018-02-24T12:02:18.595Z,25.50
2018-02-24T12:04:46.887Z,24.40
2018-02-24T12:07:14.447Z,24.40
2018-02-24T12:09:42.019Z,24.80
2018-02-24T12:12:09.573Z,24.90
2018-02-24T12:14:37.121Z,23.60
2018-02-24T12:17:04.707Z,24.50
2018-02-24T12:19:32.253Z,23.50
2018-02-24T12:21:59.854Z,23.80
2018-02-24T12:24:27.368Z,24.30
2018-02-24T12:26:54.919Z,24.20
2018-02-24T12:29:22.444Z,23.40
2018-02-24T12:31:50.743Z,22.60
2018-02-24T12:34:18.258Z,22.50
2018-02-24T12:36:45.821Z,22.60
2018-02-24T12:39:13.339Z,22.70
2018-02-24T12:41:40.853Z,22.50
2018-02-24T12:44:09.188Z,21.70
2018-02-24T12:46:36.729Z,21.70
2018-02-24T12:49:04.264Z,21.60
2018-02-24T12:51:31.792Z,21.80
2018-02-24T12:53:59.355Z,21.90
2018-02-24T12:56:27.635Z,21.60
2018-02-24T12:58:55.927Z,21.20
2018-02-24T13:01:24.031Z,21.20
2018-02-24T13:03:51.584Z,20.60
2018-02-24T13:06:19.140Z,20.90
2018-02-24T13:08:46.694Z,21.60
2018-02-24T13:11:14.978Z,20.70
2018-02-24T13:13:42.507Z,20.70
2018-02-24T13:16:10.032Z,21.60
2018-02-24T13:18:39.072Z,22.20
2018-02-24T13:21:06.609Z,22.20
2018-02-24T13:23:34.910Z,21.10
2018-02-24T13:26:02.444Z,21.00
2018-02-24T13:28:29.997Z,21.60
2018-02-24T13:30:58.272Z,22.10
2018-02-24T13:33:26.589Z,21.70
2018-02-24T13:35:54.101Z,21.60
2018-02-24T13:38:21.703Z,20.80
2018-02-24T13:40:49.264Z,20.50
2018-02-24T13:43:16.792Z,20.80
2018-02-24T13:45:44.573Z,20.40
2018-02-24T13:48:12.109Z,19.90
2018-02-24T13:50:40.408Z,19.80
2018-02-24T13:53:07.916Z,19.70
2018-02-24T13:55:35.454Z,19.80
2018-02-24T13:58:02.963Z,19.80
2018-02-24T14:00:30.475Z,19.80
2018-02-24T14:02:58.014Z,19.00
2018-02-24T14:05:25.538Z,18.20
2018-02-24T14:07:53.063Z,19.40
2018-02-24T14:10:20.620Z,18.80
2018-02-24T14:12:48.124Z,19.10
2018-02-24T14:15:15.653Z,19.60
2018-02-24T14:17:43.946Z,19.90
2018-02-24T14:20:11.468Z,19.80
2018-02-24T14:22:38.980Z,20.50
2018-02-24T14:25:06.518Z,20.20
2018-02-24T14:27:34.022Z,20.40
2018-02-24T14:30:01.570Z,20.80
2018-02-24T14:32:29.095Z,21.10
2018-02-24T14:34:56.629Z,20.90
2018-02-24T14:37:24.909Z,21.70
2018-02-24T14:39:53.196Z,21.70
2018-02-24T14:42:21.504Z,21.70
2018-02-24T14:44:49.030Z,21.60
2018-02-24T14:47:16.563Z,22.40
2018-02-24T14:49:44.833Z,23.50
2018-02-24T14:52:12.380Z,23.50
2018-02-24T14:54:39.897Z,23.50
2018-02-24T14:57:07.456Z,23.60
2018-02-24T14:59:35.004Z,24.60
2018-02-24T15:02:02.507Z,24.60
2018-02-24T15:04:30.057Z,25.10
2018-02-24T15:06:57.588Z,25.90
2018-02-24T15:09:25.131Z,26.10
2018-02-24T15:11:52.642Z,26.30
2018-02-24T15:14:20.161Z,27.00
2018-02-24T15:16:47.700Z,27.30
2018-02-24T15:19:15.237Z,27.50
2018-02-24T15:21:43.523Z,28.40
2018-02-24T15:24:11.843Z,28.80
2018-02-24T15:26:40.328Z,28.80
2018-02-24T15:29:08.838Z,28.70
2018-02-24T15:31:37.012Z,28.70
2018-02-24T15:34:04.513Z,28.70
2018-02-24T15:36:32.082Z,29.10
2018-02-24T15:38:59.608Z,29.20
2018-02-24T15:41:27.228Z,29.50
2018-02-24T15:43:54.736Z,29.70
2018-02-24T15:46:22.241Z,29.90
2018-02-24T15:48:49.769Z,30.20
2018-02-24T15:51:17.312Z,30.20
2018-02-24T15:53:44.831Z,30.90
2018-02-24T15:56:12.375Z,31.20
2018-02-24T15:58:39.923Z,31.50
2018-02-24T16:01:07.486Z,31.90
2018-02-24T16:03:34.996Z,32.30
2018-02-24T16:06:03.285Z,33.10
2018-02-24T16:08:30.830Z,33.00
2018-02-24T16:10:58.336Z,32.80
2018-02-24T16:13:25.868Z,33.00
2018-02-24T16:15:53.384Z,33.00
2018-02-24T16:18:21.680Z,33.30
2018-02-24T16:20:49.210Z,33.20
2018-02-24T16:23:16.808Z,33.40
2018-02-24T16:25:44.338Z,33.70
2018-02-24T16:28:12.650Z,34.00
2018-02-24T16:30:40.172Z,34.00
2018-02-24T16:33:08.453Z,35.20
2018-02-24T16:35:36.763Z,34.70
2018-02-24T16:38:04.306Z,34.70
2018-02-24T16:40:31.843Z,34.70
2018-02-24T16:43:00.127Z,35.10
2018-02-24T16:45:27.667Z,35.10
2018-02-24T16:47:55.204Z,35.20
2018-02-24T16:50:22.723Z,35.50
2018-02-24T16:52:50.267Z,35.60
2018-02-24T16:55:17.780Z,35.80
2018-02-24T16:57:45.301Z,36.00
2018-02-24T17:00:12.856Z,36.50
2018-02-24T17:02:40.359Z,36.80
2018-02-24T17:05:08.666Z,37.50
2018-02-24T17:07:37.000Z,37.90
2018-02-24T17:10:04.515Z,37.90
2018-02-24T17:12:32.077Z,38.00
2018-02-24T17:14:59.657Z,38.30
2018-02-24T17:17:27.164Z,38.50
2018-02-24T17:19:55.452Z,39.40
2018-02-24T17:22:23.024Z,38.80
2018-02-24T17:24:50.526Z,38.90
2018-02-24T17:27:18.845Z,39.20
2018-02-24T17:29:46.348Z,39.20
2018-02-24T17:32:13.881Z,39.30
2018-02-24T17:34:41.389Z,39.50
2018-02-24T17:37:08.916Z,39.70
2018-02-24T17:39:36.421Z,39.90
2018-02-24T17:42:04.733Z,39.60
2018-02-24T17:44:33.210Z,39.60
2018-02-24T17:47:00.768Z,39.40
2018-02-24T17:49:28.303Z,39.30
2018-02-24T17:51:55.804Z,39.40
2018-02-24T17:54:23.354Z,39.30
2018-02-24T17:56:50.882Z,39.10
2018-02-24T17:59:18.454Z,39.30
2018-02-24T18:01:45.969Z,39.40
2018-02-24T18:04:14.265Z,40.20
2018-02-24T18:06:42.577Z,39.40
2018-02-24T18:09:10.132Z,39.30
2018-02-24T18:11:37.660Z,39.50
2018-02-24T18:14:05.173Z,39.30
2018-02-24T18:16:32.710Z,40.00
2018-02-24T18:19:00.209Z,39.30
2018-02-24T18:21:28.529Z,39.40
2018-02-24T18:23:56.104Z,39.30
2018-02-24T18:26:23.657Z,39.60
2018-02-24T18:28:51.184Z,39.70
2018-02-24T18:31:18.738Z,39.30
2018-02-24T18:33:47.015Z,39.40
2018-02-24T18:36:15.312Z,39.20
2018-02-24T18:38:42.868Z,39.20
2018-02-24T18:41:10.364Z,39.10
2018-02-24T18:43:37.893Z,38.30
2018-02-24T18:46:05.404Z,37.70
2018-02-24T18:48:33.751Z,37.20
2018-02-24T18:51:01.256Z,37.20
2018-02-24T18:53:28.761Z,37.10
2018-02-24T18:55:56.318Z,36.80
2018-02-24T18:58:23.828Z,37.10
2018-02-24T19:00:51.369Z,37.20
2018-02-24T19:03:19.641Z,37.30
2018-02-24T19:05:47.974Z,37.50
2018-02-24T19:08:15.475Z,37.60
2018-02-24T19:10:43.805Z,37.20
2018-02-24T19:13:11.323Z,37.10
2018-02-24T19:15:39.620Z,37.10
2018-02-24T19:18:07.158Z,37.10
2018-02-24T19:20:35.440Z,37.00
2018-02-24T19:23:03.012Z,36.90
2018-02-24T19:25:30.543Z,37.10
2018-02-24T19:27:58.861Z,36.80
2018-02-24T19:30:26.385Z,36.70
2018-02-24T19:32:54.687Z,36.90
2018-02-24T19:35:22.219Z,36.90
2018-02-24T19:37:50.550Z,36.80
2018-02-24T19:40:18.051Z,36.80
2018-02-24T19:42:46.354Z,36.50
2018-02-24T19:45:13.927Z,36.40
2018-02-24T19:47:41.450Z,36.20
2018-02-24T19:50:09.720Z,35.90
2018-02-24T19:52:38.027Z,35.80
2018-02-24T19:55:05.606Z,35.70
2018-02-24T19:57:33.143Z,35.80
2018-02-24T20:00:00.645Z,35.70
2018-02-24T20:02:28.205Z,35.70
2018-02-24T20:04:55.706Z,35.90
2018-02-24T20:07:23.243Z,36.10
2018-02-24T20:09:51.532Z,36.30
2018-02-24T20:12:19.060Z,36.30
2018-02-24T20:14:47.358Z,35.90
2018-02-24T20:17:14.874Z,35.90
2018-02-24T20:19:42.414Z,36.10
2018-02-24T20:22:09.919Z,36.20
2018-02-24T20:24:38.260Z,36.50
2018-02-24T20:27:05.768Z,36.50
2018-02-24T20:29:33.317Z,36.30
2018-02-24T20:32:01.629Z,35.90
2018-02-24T20:34:29.132Z,35.90
2018-02-24T20:36:56.667Z,36.30
2018-02-24T20:39:24.164Z,36.10
2018-02-24T20:41:52.479Z,36.60
2018-02-24T20:44:19.991Z,36.50
2018-02-24T20:46:48.282Z,36.70
2018-02-24T20:49:16.606Z,36.70
2018-02-24T20:51:44.116Z,36.60
2018-02-24T20:54:12.424Z,36.80
2018-02-24T20:56:39.945Z,36.80
2018-02-24T20:59:08.234Z,36.60
2018-02-24T21:01:35.753Z,36.60
2018-02-24T21:04:03.282Z,36.40
2018-02-24T21:06:30.802Z,36.60
2018-02-24T21:08:58.332Z,36.30
2018-02-24T21:11:25.878Z,36.40
2018-02-24T21:13:53.369Z,36.60
2018-02-24T21:16:21.669Z,36.30
2018-02-24T21:18:49.213Z,36.30
2018-02-24T21:21:16.732Z,36.30
2018-02-24T21:23:44.296Z,37.20
2018-02-24T21:26:11.851Z,36.70
2018-02-24T21:28:39.349Z,36.80
2018-02-24T21:31:06.898Z,37.00
2018-02-24T21:33:35.210Z,37.20
2018-02-24T21:36:02.771Z,37.20
2018-02-24T21:38:30.312Z,37.30
2018-02-24T21:40:57.811Z,37.40
2018-02-24T21:43:25.363Z,37.60
2018-02-24T21:45:52.869Z,37.40
2018-02-24T21:48:20.433Z,37.50
2018-02-24T21:50:47.953Z,37.60
2018-02-24T21:53:15.476Z,37.90
2018-02-24T21:55:43.022Z,38.00
2018-02-24T21:58:10.539Z,38.00
2018-02-24T22:00:38.860Z,37.90
2018-02-24T22:03:06.379Z,37.90
2018-02-24T22:05:34.699Z,38.10
2018-02-24T22:08:02.216Z,38.10
2018-02-24T22:10:30.532Z,38.50
2018-02-24T22:12:58.044Z,38.50
2018-02-24T22:15:26.332Z,38.70
2018-02-24T22:17:53.874Z,38.70
2018-02-24T22:20:21.388Z,39.00
2018-02-24T22:22:48.921Z,39.00
2018-02-24T22:25:16.445Z,39.20
2018-02-24T22:27:44.762Z,39.30
2018-02-24T22:30:12.280Z,39.20
2018-02-24T22:32:40.614Z,39.40
2018-02-24T22:35:08.140Z,39.40
2018-02-24T22:37:35.680Z,39.40
2018-02-24T22:40:03.228Z,39.40
2018-02-24T22:42:31.515Z,39.60
2018-02-24T22:44:59.070Z,39.50
2018-02-24T22:47:32.350Z,39.40
2018-02-24T22:50:00.661Z,39.80
2018-02-24T22:52:28.180Z,39.70
2018-02-24T22:54:55.728Z,39.70
2018-02-24T22:57:23.237Z,40.10
2018-02-24T22:59:50.748Z,40.10
2018-02-24T23:02:18.293Z,39.90
2018-02-24T23:04:46.585Z,39.90
2018-02-24T23:07:14.918Z,40.20
2018-02-24T23:09:42.437Z,40.10
2018-02-24T23:12:09.944Z,40.90
2018-02-24T23:14:37.490Z,40.20
2018-02-24T23:17:05.052Z,40.40
2018-02-24T23:19:32.564Z,40.20
2018-02-24T23:22:00.100Z,40.30
2018-02-24T23:24:27.632Z,40.20
2018-02-24T23:26:55.160Z,40.10
2018-02-24T23:29:23.334Z,40.00
2018-02-24T23:31:50.857Z,39.90
2018-02-24T23:34:19.140Z,40.00
2018-02-24T23:36:47.449Z,40.00
2018-02-24T23:39:14.975Z,40.00
2018-02-24T23:41:43.268Z,40.00
2018-02-24T23:44:10.781Z,40.00
2018-02-24T23:46:38.352Z,40.00
2018-02-24T23:49:05.916Z,40.10
2018-02-24T23:51:34.508Z,40.20
2018-02-24T23:54:02.790Z,40.60
2018-02-24T23:56:30.321Z,40.00
2018-02-24T23:58:57.868Z,40.20
